createdAt,value
2018-02-03T00:01:27.531Z,22.93
2018-02-03T00:03:55.377Z,18.57
2018-02-03T00:06:23.165Z,21.77
2018-02-03T00:08:51.443Z,19.00
2018-02-03T00:11:19.833Z,21.10
2018-02-03T00:13:47.574Z,18.40
2018-02-03T00:16:16.017Z,20.90
2018-02-03T00:18:45.556Z,20.60
2018-02-03T00:21:13.276Z,19.03
2018-02-03T00:23:41.121Z,18.90
2018-02-03T00:26:08.902Z,20.80
2018-02-03T00:28:37.331Z,19.93
2018-02-03T00:31:05.197Z,21.07
2018-02-03T00:33:32.913Z,21.70
2018-02-03T00:36:02.023Z,18.70
2018-02-03T00:38:29.819Z,19.43
2018-02-03T00:40:58.456Z,19.53
2018-02-03T00:43:26.268Z,19.43
2018-02-03T00:45:53.992Z,20.63
2018-02-03T00:48:21.724Z,18.70
2018-02-03T00:50:49.767Z,18.13
2018-02-03T00:53:17.456Z,18.53
2018-02-03T00:55:45.391Z,17.47
2018-02-03T00:58:13.155Z,15.93
2018-02-03T01:00:41.526Z,20.70
2018-02-03T01:03:09.295Z,17.17
2018-02-03T01:05:37.076Z,19.57
2018-02-03T01:08:05.734Z,19.63
2018-02-03T01:10:33.713Z,15.70
2018-02-03T01:13:01.412Z,17.40
2018-02-03T01:15:29.337Z,15.60
2018-02-03T01:17:57.924Z,18.17
2018-02-03T01:20:25.996Z,14.00
2018-02-03T01:22:55.358Z,16.27
2018-02-03T01:25:23.265Z,16.00
2018-02-03T01:27:50.958Z,16.53
2018-02-03T01:30:18.645Z,15.97
2018-02-03T01:32:48.052Z,20.03
2018-02-03T01:35:15.781Z,19.03
2018-02-03T01:37:44.130Z,19.33
2018-02-03T01:40:11.846Z,19.67
2018-02-03T01:42:41.125Z,21.17
2018-02-03T01:45:09.533Z,20.13
2018-02-03T01:47:50.246Z,19.43
2018-02-03T01:50:19.109Z,20.27
2018-02-03T01:52:47.211Z,21.43
2018-02-03T01:55:14.963Z,21.07
2018-02-03T01:57:43.396Z,22.47
2018-02-03T02:00:11.220Z,23.43
2018-02-03T02:02:40.530Z,22.80
2018-02-03T02:05:08.264Z,20.07
2018-02-03T02:07:38.251Z,23.83
2018-02-03T02:10:06.754Z,24.10
2018-02-03T02:12:34.729Z,23.23
2018-02-03T02:15:03.515Z,21.53
2018-02-03T02:17:32.096Z,25.50
2018-02-03T02:19:59.882Z,23.50
2018-02-03T02:22:27.571Z,21.50
2018-02-03T02:24:56.310Z,24.47
2018-02-03T02:27:24.169Z,23.43
2018-02-03T02:29:51.896Z,24.67
2018-02-03T02:32:20.271Z,27.97
2018-02-03T02:34:48.694Z,24.70
2018-02-03T02:37:16.460Z,27.97
2018-02-03T02:39:44.332Z,29.57
2018-02-03T02:42:12.198Z,26.27
2018-02-03T02:44:41.422Z,24.27
2018-02-03T02:47:10.053Z,25.80
2018-02-03T02:49:38.345Z,28.37
2018-02-03T02:52:06.151Z,26.73
2018-02-03T02:54:34.287Z,27.23
2018-02-03T02:57:02.594Z,27.13
2018-02-03T02:59:30.640Z,26.13
2018-02-03T03:01:58.432Z,25.00
2018-02-03T03:04:26.440Z,26.33
2018-02-03T03:06:54.168Z,29.07
2018-02-03T03:09:23.344Z,27.80
2018-02-03T03:11:51.767Z,26.47
2018-02-03T03:14:19.488Z,25.30
2018-02-03T03:16:47.275Z,28.97
2018-02-03T03:19:16.732Z,27.10
2018-02-03T03:21:44.585Z,26.57
2018-02-03T03:24:12.456Z,28.43
2018-02-03T03:26:40.637Z,25.50
2018-02-03T03:29:08.708Z,25.97
2018-02-03T03:31:36.468Z,27.57
2018-02-03T03:34:04.832Z,28.73
2018-02-03T03:36:32.615Z,27.27
2018-02-03T03:39:00.572Z,25.90
2018-02-03T03:41:28.357Z,24.43
2018-02-03T03:43:57.039Z,22.67
2018-02-03T03:46:25.629Z,28.37
2018-02-03T03:48:54.223Z,25.00
2018-02-03T03:51:22.801Z,25.10
2018-02-03T03:53:51.256Z,24.60
2018-02-03T03:56:18.996Z,23.20
2018-02-03T03:58:46.770Z,28.33
2018-02-03T04:01:14.777Z,24.00
2018-02-03T04:03:42.603Z,23.13
2018-02-03T04:06:10.469Z,23.67
2018-02-03T04:08:38.447Z,22.37
2018-02-03T04:11:06.255Z,25.63
2018-02-03T04:13:35.437Z,22.87
2018-02-03T04:16:03.582Z,24.83
2018-02-03T04:18:31.556Z,27.73
2018-02-03T04:20:59.517Z,28.63
2018-02-03T04:23:27.383Z,23.90
2018-02-03T04:25:56.020Z,25.27
2018-02-03T04:28:24.017Z,24.33
2018-02-03T04:30:52.590Z,21.77
2018-02-03T04:33:21.049Z,22.07
2018-02-03T04:35:49.579Z,21.17
2018-02-03T04:38:17.257Z,23.97
2018-02-03T04:40:45.032Z,22.63
2018-02-03T04:43:12.686Z,21.47
2018-02-03T04:45:41.640Z,22.20
2018-02-03T04:48:09.625Z,21.60
2018-02-03T04:50:37.818Z,22.87
2018-02-03T04:53:05.692Z,22.93
2018-02-03T04:55:34.247Z,23.70
2018-02-03T04:58:02.001Z,22.40
2018-02-03T05:00:30.374Z,20.57
2018-02-03T05:02:58.358Z,19.33
2018-02-03T05:05:26.063Z,18.43
2018-02-03T05:07:54.701Z,18.80
2018-02-03T05:10:22.467Z,17.87
2018-02-03T05:12:50.461Z,19.13
2018-02-03T05:15:19.707Z,16.50
2018-02-03T05:17:48.374Z,16.87
2018-02-03T05:20:16.921Z,13.40
2018-02-03T05:22:45.345Z,17.20
2018-02-03T05:25:13.146Z,16.73
2018-02-03T05:27:41.183Z,20.93
2018-02-03T05:30:09.216Z,18.37
2018-02-03T05:32:37.263Z,18.20
2018-02-03T05:35:06.118Z,16.10
2018-02-03T05:37:34.707Z,17.33
2018-02-03T05:40:02.441Z,17.40
2018-02-03T05:42:31.242Z,18.43
2018-02-03T05:45:00.481Z,17.70
2018-02-03T05:47:28.843Z,17.40
2018-02-03T05:49:59.106Z,16.13
2018-02-03T05:52:27.690Z,16.47
2018-02-03T05:54:55.783Z,17.40
2018-02-03T05:57:23.704Z,16.60
2018-02-03T05:59:51.520Z,16.00
2018-02-03T06:02:20.174Z,16.67
2018-02-03T06:04:48.648Z,15.63
2018-02-03T06:07:17.151Z,16.60
2018-02-03T06:09:46.401Z,15.07
2018-02-03T06:12:14.331Z,13.23
2018-02-03T06:14:42.235Z,16.27
2018-02-03T06:17:10.333Z,12.97
2018-02-03T06:19:38.411Z,12.70
2018-02-03T06:22:07.161Z,14.63
2018-02-03T06:24:35.517Z,13.20
2018-02-03T06:27:03.349Z,13.73
2018-02-03T06:29:31.072Z,15.17
2018-02-03T06:31:59.080Z,15.90
2018-02-03T06:34:27.896Z,14.47
2018-02-03T06:36:56.536Z,14.40
2018-02-03T06:39:25.028Z,16.20
2018-02-03T06:41:53.481Z,17.37
2018-02-03T06:44:21.170Z,16.37
2018-02-03T06:46:49.915Z,15.50
2018-02-03T06:49:19.713Z,16.50
2018-02-03T06:51:47.812Z,16.13
2018-02-03T06:54:16.684Z,14.30
2018-02-03T06:56:45.446Z,16.00
2018-02-03T06:59:13.340Z,15.17
2018-02-03T07:01:41.049Z,13.67
2018-02-03T07:04:08.868Z,14.20
2018-02-03T07:06:38.899Z,14.57
2018-02-03T07:09:08.071Z,18.20
2018-02-03T07:11:36.205Z,18.10
2018-02-03T07:14:04.661Z,19.13
2018-02-03T07:16:32.712Z,17.93
2018-02-03T07:19:00.941Z,19.17
2018-02-03T07:21:29.719Z,19.10
2018-02-03T07:23:58.609Z,21.77
2018-02-03T07:26:27.249Z,18.17
2018-02-03T07:28:56.490Z,21.63
2018-02-03T07:31:24.301Z,17.47
2018-02-03T07:33:53.109Z,13.83
2018-02-03T07:36:21.557Z,11.93
2018-02-03T07:38:50.299Z,12.60
2018-02-03T07:41:18.531Z,12.80
2018-02-03T07:43:46.496Z,12.97
2018-02-03T07:46:14.361Z,11.97
2018-02-03T07:48:42.038Z,11.60
2018-02-03T07:51:09.852Z,12.80
2018-02-03T07:53:37.550Z,11.33
2018-02-03T07:56:05.949Z,12.93
2018-02-03T07:58:34.184Z,13.70
2018-02-03T08:01:02.947Z,11.53
2018-02-03T08:03:30.637Z,12.83
2018-02-03T08:05:58.467Z,13.10
2018-02-03T08:08:27.188Z,11.23
2018-02-03T08:10:55.754Z,11.77
2018-02-03T08:13:23.468Z,11.83
2018-02-03T08:15:51.313Z,13.17
2018-02-03T08:18:19.164Z,14.83
2018-02-03T08:20:47.763Z,13.53
2018-02-03T08:23:16.608Z,14.10
2018-02-03T08:25:44.414Z,12.27
2018-02-03T08:28:12.168Z,13.03
2018-02-03T08:30:40.658Z,12.77
2018-02-03T08:33:08.990Z,11.87
2018-02-03T08:35:37.446Z,12.27
2018-02-03T08:38:05.792Z,12.13
2018-02-03T08:40:34.302Z,11.70
2018-02-03T08:43:02.191Z,10.97
2018-02-03T08:45:30.704Z,11.20
2018-02-03T08:47:59.235Z,11.17
2018-02-03T08:50:27.066Z,10.20
2018-02-03T08:52:55.453Z,11.70
2018-02-03T08:55:23.299Z,9.63
2018-02-03T08:57:51.743Z,10.67
2018-02-03T09:00:20.968Z,10.93
2018-02-03T09:02:52.619Z,11.10
2018-02-03T09:05:21.223Z,9.13
2018-02-03T09:07:48.941Z,11.30
2018-02-03T09:10:17.489Z,10.80
2018-02-03T09:12:46.007Z,9.00
2018-02-03T09:15:14.664Z,7.70
2018-02-03T09:17:43.753Z,7.57
2018-02-03T09:20:11.432Z,4.67
2018-02-03T09:22:40.791Z,6.17
2018-02-03T09:25:09.421Z,4.93
2018-02-03T09:27:38.013Z,5.13
2018-02-03T09:30:08.031Z,4.00
2018-02-03T09:32:35.831Z,4.20
2018-02-03T09:35:03.734Z,5.13
2018-02-03T09:37:32.239Z,4.77
2018-02-03T09:40:00.209Z,3.90
2018-02-03T09:42:27.889Z,4.40
2018-02-03T09:44:56.492Z,4.57
2018-02-03T09:47:24.459Z,4.97
2018-02-03T09:49:52.214Z,4.37
2018-02-03T09:52:20.725Z,4.63
2018-02-03T09:54:48.585Z,4.93
2018-02-03T09:57:17.182Z,4.97
2018-02-03T09:59:45.853Z,5.20
2018-02-03T10:02:14.560Z,6.00
2018-02-03T10:04:43.131Z,5.73
2018-02-03T10:07:12.448Z,6.20
2018-02-03T10:09:40.208Z,5.57
2018-02-03T10:12:08.710Z,5.60
2018-02-03T10:14:37.298Z,6.23
2018-02-03T10:17:05.253Z,5.53
2018-02-03T10:19:34.399Z,5.57
2018-02-03T10:22:02.261Z,5.50
2018-02-03T10:24:30.765Z,6.17
2018-02-03T10:26:59.207Z,6.80
2018-02-03T10:29:28.513Z,7.27
2018-02-03T10:31:56.175Z,7.00
2018-02-03T10:34:24.580Z,6.60
2018-02-03T10:36:53.299Z,7.80
2018-02-03T10:39:22.595Z,9.10
2018-02-03T10:41:51.028Z,7.60
2018-02-03T10:44:19.212Z,7.10
2018-02-03T10:46:48.522Z,7.10
2018-02-03T10:49:17.391Z,6.93
2018-02-03T10:51:46.282Z,7.93
2018-02-03T10:54:14.109Z,9.20
2018-02-03T10:56:41.979Z,7.63
2018-02-03T10:59:10.385Z,8.97
2018-02-03T11:01:38.981Z,7.47
2018-02-03T11:04:07.653Z,7.90
2018-02-03T11:06:35.373Z,7.17
2018-02-03T11:09:03.082Z,8.00
2018-02-03T11:11:30.950Z,8.37
2018-02-03T11:13:58.722Z,9.60
2018-02-03T11:16:27.099Z,7.30
2018-02-03T11:18:54.963Z,7.07
2018-02-03T11:21:23.016Z,7.30
2018-02-03T11:23:51.688Z,7.77
2018-02-03T11:26:20.222Z,7.97
2018-02-03T11:28:48.131Z,9.20
2018-02-03T11:31:16.686Z,8.47
2018-02-03T11:33:44.505Z,9.00
2018-02-03T11:36:12.215Z,10.70
2018-02-03T11:38:40.007Z,9.33
2018-02-03T11:41:07.724Z,9.90
2018-02-03T11:43:35.447Z,9.17
2018-02-03T11:46:03.186Z,9.20
2018-02-03T11:48:30.921Z,8.17
2018-02-03T11:50:58.787Z,8.97
2018-02-03T11:53:27.228Z,8.47
2018-02-03T11:55:55.095Z,7.70
2018-02-03T11:58:22.884Z,8.80
2018-02-03T12:00:50.824Z,8.17
2018-02-03T12:03:18.721Z,8.13
2018-02-03T12:05:46.550Z,7.83
2018-02-03T12:08:14.327Z,8.80
2018-02-03T12:10:42.198Z,9.33
2018-02-03T12:13:11.006Z,8.33
2018-02-03T12:15:38.757Z,9.83
2018-02-03T12:18:07.996Z,8.50
2018-02-03T12:20:35.922Z,8.63
2018-02-03T12:23:04.468Z,7.83
2018-02-03T12:25:32.379Z,8.90
2018-02-03T12:28:01.061Z,9.90
2018-02-03T12:30:29.649Z,9.47
2018-02-03T12:32:58.102Z,9.50
2018-02-03T12:35:25.863Z,8.97
2018-02-03T12:37:54.444Z,8.80
2018-02-03T12:40:22.246Z,9.87
2018-02-03T12:42:49.989Z,9.27
2018-02-03T12:45:19.297Z,11.13
2018-02-03T12:47:47.837Z,9.53
2018-02-03T12:50:15.572Z,8.77
2018-02-03T12:52:44.098Z,8.97
2018-02-03T12:55:12.394Z,10.97
2018-02-03T12:57:41.985Z,8.50
2018-02-03T13:00:09.785Z,9.93
2018-02-03T13:02:39.061Z,7.70
2018-02-03T13:05:07.851Z,9.17
2018-02-03T13:07:35.557Z,9.10
2018-02-03T13:10:03.477Z,11.80
2018-02-03T13:12:31.204Z,12.13
2018-02-03T13:14:59.037Z,9.83
2018-02-03T13:17:26.765Z,10.40
2018-02-03T13:19:54.618Z,10.17
2018-02-03T13:22:22.392Z,9.53
2018-02-03T13:24:50.153Z,10.60
2018-02-03T13:27:18.688Z,10.90
2018-02-03T13:29:47.145Z,10.00
2018-02-03T13:32:15.917Z,10.53
2018-02-03T13:34:43.607Z,9.53
2018-02-03T13:37:11.429Z,9.97
2018-02-03T13:39:39.180Z,10.13
2018-02-03T13:42:07.576Z,12.23
2018-02-03T13:44:35.256Z,9.30
2018-02-03T13:47:04.033Z,9.73
2018-02-03T13:49:31.722Z,9.90
2018-02-03T13:52:00.177Z,7.73
2018-02-03T13:54:28.044Z,9.23
2018-02-03T13:56:55.810Z,8.57
2018-02-03T13:59:24.402Z,9.33
2018-02-03T14:01:52.867Z,8.63
2018-02-03T14:04:20.601Z,8.47
2018-02-03T14:06:48.340Z,8.37
2018-02-03T14:09:16.075Z,8.67
2018-02-03T14:11:44.550Z,10.57
2018-02-03T14:14:12.304Z,11.77
2018-02-03T14:16:40.082Z,9.00
2018-02-03T14:19:07.868Z,9.03
2018-02-03T14:21:35.593Z,10.87
2018-02-03T14:24:09.002Z,9.77
2018-02-03T14:26:36.773Z,10.20
2018-02-03T14:29:05.400Z,9.50
2018-02-03T14:31:33.117Z,9.27
2018-02-03T14:34:01.622Z,8.07
2018-02-03T14:39:03.620Z,8.60
2018-02-03T14:41:31.892Z,8.80
2018-02-03T14:44:00.713Z,13.30
2018-02-03T14:46:29.938Z,11.07
2018-02-03T14:48:58.116Z,8.13
2018-02-03T14:51:27.508Z,8.20
2018-02-03T14:53:56.687Z,10.03
2018-02-03T14:56:24.513Z,9.77
2018-02-03T14:58:54.021Z,9.23
2018-02-03T15:01:21.754Z,9.80
2018-02-03T15:03:50.369Z,9.57
2018-02-03T15:06:18.157Z,11.10
2018-02-03T15:08:46.656Z,10.03
2018-02-03T15:11:15.217Z,9.97
2018-02-03T15:13:43.156Z,8.47
2018-02-03T15:16:11.122Z,9.17
2018-02-03T15:18:39.779Z,9.00
2018-02-03T15:21:08.216Z,9.80
2018-02-03T15:23:36.272Z,9.80
2018-02-03T15:26:03.990Z,10.67
2018-02-03T15:28:31.701Z,11.23
2018-02-03T15:30:59.386Z,9.40
2018-02-03T15:33:27.505Z,9.07
2018-02-03T15:35:55.892Z,9.00
2018-02-03T15:38:23.866Z,9.27
2018-02-03T15:40:51.549Z,8.97
2018-02-03T15:43:20.086Z,8.13
2018-02-03T15:45:47.866Z,9.80
2018-02-03T15:48:16.515Z,11.10
2018-02-03T15:50:44.453Z,10.07
2018-02-03T15:53:12.233Z,12.03
2018-02-03T15:55:40.916Z,10.67
2018-02-03T15:58:08.835Z,10.97
2018-02-03T16:00:36.808Z,13.10
2018-02-03T16:03:04.609Z,9.30
2018-02-03T16:05:32.459Z,11.07
2018-02-03T16:08:01.093Z,8.23
2018-02-03T16:10:29.097Z,8.37
2018-02-03T16:12:58.318Z,8.70
2018-02-03T16:15:26.452Z,9.60
2018-02-03T16:17:54.350Z,7.97
2018-02-03T16:20:22.191Z,9.30
2018-02-03T16:22:49.972Z,8.17
2018-02-03T16:25:18.025Z,8.90
2018-02-03T16:27:46.457Z,9.13
2018-02-03T16:30:15.192Z,10.97
2018-02-03T16:32:43.060Z,8.47
2018-02-03T16:35:11.577Z,11.40
2018-02-03T16:37:40.162Z,9.33
2018-02-03T16:40:07.989Z,10.07
2018-02-03T16:42:35.815Z,9.60
2018-02-03T16:45:04.339Z,8.03
2018-02-03T16:47:32.457Z,9.97
2018-02-03T16:50:00.232Z,10.27
2018-02-03T16:52:28.772Z,8.43
2018-02-03T16:54:57.452Z,10.27
2018-02-03T16:57:25.225Z,8.10
2018-02-03T16:59:53.234Z,8.17
2018-02-03T17:02:20.996Z,8.50
2018-02-03T17:04:49.949Z,10.07
2018-02-03T17:07:17.718Z,10.00
2018-02-03T17:09:45.466Z,11.53
2018-02-03T17:12:13.194Z,9.27
2018-02-03T17:14:40.901Z,9.67
2018-02-03T17:17:09.397Z,10.07
2018-02-03T17:19:37.192Z,9.23
2018-02-03T17:22:05.591Z,10.77
2018-02-03T17:24:33.286Z,11.37
2018-02-03T17:27:00.973Z,9.67
2018-02-03T17:29:30.025Z,9.77
2018-02-03T17:34:32.697Z,10.40
2018-02-03T17:37:06.317Z,10.83
2018-02-03T17:39:35.645Z,9.53
2018-02-03T17:42:03.505Z,9.53
2018-02-03T17:44:31.231Z,10.37
2018-02-03T17:47:11.117Z,9.23
2018-02-03T17:49:39.074Z,8.07
2018-02-03T17:52:07.810Z,8.97
2018-02-03T17:54:36.102Z,8.23
2018-02-03T17:57:09.785Z,8.30
2018-02-03T17:59:38.295Z,9.93
2018-02-03T18:02:06.184Z,9.93
2018-02-03T18:04:34.145Z,8.90
2018-02-03T18:07:05.704Z,9.20
2018-02-03T18:09:33.480Z,11.17
2018-02-03T18:12:01.441Z,9.43
2018-02-03T18:14:29.439Z,13.00
2018-02-03T18:16:57.280Z,9.93
2018-02-03T18:19:25.172Z,9.37
2018-02-03T18:21:53.917Z,9.90
2018-02-03T18:24:21.997Z,11.23
2018-02-03T18:26:49.935Z,9.17
2018-02-03T18:29:17.656Z,8.90
2018-02-03T18:31:45.357Z,10.87
2018-02-03T18:34:13.268Z,10.80
2018-02-03T18:36:42.039Z,11.33
2018-02-03T18:39:09.906Z,10.80
2018-02-03T18:41:37.739Z,9.67
2018-02-03T18:44:05.409Z,7.47
2018-02-03T18:46:34.323Z,8.87
2018-02-03T18:49:02.783Z,6.43
2018-02-03T18:51:30.516Z,7.60
2018-02-03T18:53:58.605Z,8.37
2018-02-03T18:56:26.383Z,9.47
2018-02-03T18:58:54.344Z,8.87
2018-02-03T19:01:22.734Z,9.07
2018-02-03T19:03:50.603Z,11.63
2018-02-03T19:06:18.563Z,9.77
2018-02-03T19:08:47.785Z,9.93
2018-02-03T19:11:15.572Z,9.13
2018-02-03T19:13:44.463Z,8.47
2018-02-03T19:16:12.197Z,9.83
2018-02-03T19:18:39.930Z,8.90
2018-02-03T19:21:07.617Z,7.83
2018-02-03T19:23:35.376Z,9.57
2018-02-03T19:26:03.113Z,8.43
2018-02-03T19:28:30.825Z,6.60
2018-02-03T19:30:58.606Z,7.33
2018-02-03T19:33:26.296Z,8.87
2018-02-03T19:35:54.167Z,7.10
2018-02-03T19:38:22.851Z,7.33
2018-02-03T19:40:50.720Z,10.50
2018-02-03T19:43:18.495Z,10.93
2018-02-03T19:45:47.173Z,10.10
2018-02-03T19:48:14.952Z,9.13
2018-02-03T19:50:44.385Z,6.70
2018-02-03T19:53:12.941Z,6.90
2018-02-03T19:55:41.211Z,6.57
2018-02-03T19:58:10.428Z,9.57
2018-02-03T20:00:39.021Z,8.20
2018-02-03T20:03:07.533Z,7.60
2018-02-03T20:05:36.145Z,7.00
2018-02-03T20:08:03.997Z,6.27
2018-02-03T20:10:31.773Z,7.67
2018-02-03T20:12:59.622Z,6.83
2018-02-03T20:15:27.349Z,6.57
2018-02-03T20:17:55.097Z,7.37
2018-02-03T20:20:22.832Z,7.37
2018-02-03T20:22:50.595Z,14.27
2018-02-03T20:25:18.429Z,8.83
2018-02-03T20:27:46.137Z,4.47
2018-02-03T20:30:14.669Z,7.80
2018-02-03T20:32:42.404Z,5.37
2018-02-03T20:35:10.904Z,5.93
2018-02-03T20:37:39.515Z,7.53
2018-02-03T20:40:08.045Z,5.43
2018-02-03T20:42:36.582Z,5.90
2018-02-03T20:45:04.272Z,9.07
2018-02-03T20:47:32.971Z,7.43
2018-02-03T20:50:00.833Z,8.80
2018-02-03T20:52:28.658Z,6.97
2018-02-03T20:54:56.380Z,6.30
2018-02-03T20:57:25.105Z,5.60
2018-02-03T20:59:52.838Z,5.23
2018-02-03T21:02:21.248Z,5.73
2018-02-03T21:04:48.888Z,7.03
2018-02-03T21:07:16.605Z,7.70
2018-02-03T21:09:44.356Z,5.97
2018-02-03T21:12:12.840Z,6.87
2018-02-03T21:14:40.575Z,7.30
2018-02-03T21:17:08.265Z,6.53
2018-02-03T21:19:36.047Z,7.83
2018-02-03T21:22:04.531Z,7.53
2018-02-03T21:24:33.012Z,9.10
2018-02-03T21:27:01.596Z,9.40
2018-02-03T21:29:29.317Z,10.60
2018-02-03T21:31:57.049Z,7.53
2018-02-03T21:34:24.745Z,6.83
2018-02-03T21:36:52.448Z,6.00
2018-02-03T21:39:20.261Z,7.30
2018-02-03T21:41:47.961Z,7.70
2018-02-03T21:44:16.426Z,5.47
2018-02-03T21:46:44.193Z,6.77
2018-02-03T21:49:11.974Z,7.30
2018-02-03T21:51:39.703Z,5.90
2018-02-03T21:54:07.447Z,5.30
2018-02-03T21:56:35.514Z,6.27
2018-02-03T21:59:03.303Z,5.20
2018-02-03T22:01:31.051Z,6.03
2018-02-03T22:03:58.831Z,7.20
2018-02-03T22:06:27.370Z,7.47
2018-02-03T22:08:55.070Z,5.93
2018-02-03T22:11:22.784Z,6.73
2018-02-03T22:13:51.296Z,6.03
2018-02-03T22:16:19.037Z,9.03
2018-02-03T22:18:46.720Z,7.23
2018-02-03T22:21:14.406Z,7.97
2018-02-03T22:23:42.144Z,5.97
2018-02-03T22:26:09.868Z,6.00
2018-02-03T22:28:37.607Z,6.67
2018-02-03T22:31:05.414Z,6.50
2018-02-03T22:33:33.082Z,8.30
2018-02-03T22:36:00.868Z,5.40
2018-02-03T22:38:29.373Z,5.63
2018-02-03T22:40:57.857Z,7.33
2018-02-03T22:43:26.368Z,5.60
2018-02-03T22:45:54.058Z,6.47
2018-02-03T22:48:21.833Z,6.17
2018-02-03T22:50:49.609Z,6.90
2018-02-03T22:53:18.106Z,6.67
2018-02-03T22:55:45.809Z,5.77
2018-02-03T22:58:13.618Z,9.43
2018-02-03T23:00:41.313Z,6.53
2018-02-03T23:03:09.769Z,6.40
2018-02-03T23:05:37.556Z,6.73
2018-02-03T23:08:06.248Z,9.37
2018-02-03T23:10:33.951Z,6.80
2018-02-03T23:13:01.690Z,7.77
2018-02-03T23:15:30.201Z,7.77
2018-02-03T23:17:58.958Z,6.17
2018-02-03T23:20:26.751Z,9.30
2018-02-03T23:22:55.004Z,7.30
2018-02-03T23:25:22.749Z,5.37
2018-02-03T23:27:50.980Z,5.90
2018-02-03T23:30:18.749Z,5.63
2018-02-03T23:32:46.454Z,5.93
2018-02-03T23:35:14.257Z,6.53
2018-02-03T23:37:41.966Z,5.80
2018-02-03T23:40:09.794Z,5.00
2018-02-03T23:42:38.281Z,5.00
2018-02-03T23:45:05.979Z,6.67
2018-02-03T23:47:33.844Z,5.57
2018-02-03T23:50:01.650Z,5.47
2018-02-03T23:52:29.312Z,5.17
2018-02-03T23:54:57.133Z,10.03
2018-02-03T23:57:24.870Z,16.97
2018-02-03T23:59:52.648Z,9.00
